Share

Ontonagon, MI

7:16 PM EDT on April 23, 2014 (GMT -0400)
APRSWXNET Silver City MI US (ME2735) Elev 634 ft | 46.83 °N, 89.57 °W | Change Station
Active Advisory: Special Statement

Current weather conditions updated 53 minutes ago

Clear
Clear
42 °F
Feels Like 40 °F
N
4
Wind Variable Wind from SSW
Gusts 0.0 mph
Sunrise 6:55 AM
Sunset 8:56 PM
Moon Waning Crescent

Tomorrow is forecast to be nearly the same temperature as today. Periods of rain during the afternoon.

Pressure 30.06 in
Visibility 10.0 miles
Clouds Clear
Windchill 40 °F
Dew Point 27 °F
Humidity 55%
Rainfall -999.00 in
Snow Depth Not available.
UV 2 out of 16
Pollen 9.80 out of 12
Air Quality Not available.
Flu Activity Sporadic
METAR KLNL 232235Z AUTO 16005KT 10SM CLR 12/M09 A3006 RMK AO2 T01191089

More Conditions Fewer Conditions

Pressure 30.06 in
Visibility 10.0 miles
Clouds Clear
Windchill 40 °F
Dew Point 27 °F
Humidity 55%
Rainfall -999.00 in
Snow Depth Not available.
UV 2 out of 16
Pollen 9.80 out of 12
Air Quality Not available.
Flu Activity Sporadic
METAR KLNL 232235Z AUTO 16005KT 10SM CLR 12/M09 A3006 RMK AO2 T01191089

More Conditions Fewer Conditions

10-Day Weather Forecast

Almanac

Astronomy

Apr. 23, 2014 Rise Set
Actual Time 6:55 AM EDT 8:56 PM EDT
Civil Twilight 6:22 AM EDT 9:29 PM EDT
Nautical Twilight 5:42 AM EDT 10:10 PM EDT
Astronomical Twilight 4:57 AM EDT 10:55 PM EDT
Moon 3:50 AM EDT 2:43 PM EDT
Length of Visible Light 15h 06m
Length of Day
14h 01m
Tomorrow will be 3m 6s longer.
Waning Crescent, 32% of the Moon is Illuminated
Today
Waning Crescent
Apr 29
New
May 6
First Quarter
May 14
Full
May 21
Last Quarter

Today's Extremes

State Highs State Lows

Community

  • Nestled In
    Nestled In
  • Stunning Sunrise
    Stunning Sunrise
  • spring flowers
    spring flowers
  • Earth Day Spectrum Ove' Blue
    Earth Day Spectrum Ove' Blue
  • BARN B&W
    BARN B&W

WunderPhotos

Upload Photos

1,704,454 photos uploaded!

WunderBlogs® & News

Nearby

Snow Depth

Station Depth Elevation
No new snow has been reported.

Coastal Water Temperatures

Place Temperature
No Stations Reporting

Earthquake Activity

City Distance Mag. Time & Date
No recent earthquake activity has been reported nearby.
Minimum magnitude displayed is 2.5.

Nearby Weather Stations

Station Location Temp. Windchill Dew Point Humidity Wind Precip. Elev Updated Type
APRSWXNET Silver City MI , White Pine, MI 42 °F 40 °F 27 °F 55% SSW  at  4 mph 0.00 in / hr 634 ft 6:23 PM EDT MADIS
Mountain View Lodges, Silver City, MI / , Ontonagon, MI 40.6 °F 41 °F 29 °F 64% NE  at  0.0 mph 0.00 in / hr 587 ft 7:10 PM EDT Normal

Show More Stations Show Fewer Stations

What do you think?

We're not finished. Please let us know what you like, what you don't like, and what you are still missing.